Time;durP1;ratioP1;P1;durP2;ratioP2;P2;SDS_P1;SDS_P2;PMS_P1;PMS_P2;Temp;Humidity;BMP_temperature;BMP_pressure;BME280_temperature;BME280_humidity;BME280_pressure;Samples;Min_cycle;Max_cycle;Signal;HPM_P1;HPM_P2
2021/06/20 00:01:49;;;;;;;;;;;;;;;25.05;58.30;100850.63;5015358;28;19917;-81
2021/06/20 00:04:14;;;;;;;;;;;;;;;25.45;57.19;100849.03;5016813;28;20024;-81
2021/06/20 00:06:46;;;;;;;;;;;;;;;25.10;58.66;100853.72;5032519;28;20012;-80
2021/06/20 00:09:12;;;;;;;;;;;;;;;24.49;60.42;100849.28;5016067;28;19917;-80
2021/06/20 00:11:38;;;;;;;;;;;;;;;23.06;65.32;100845.59;5016589;28;19924;-82
2021/06/20 00:14:04;;;;;;;;;;;;;;;23.65;63.19;100830.34;5015096;28;19971;-81
2021/06/20 00:16:30;;;;;;;;;;;;;;;23.30;63.68;100828.47;5016112;28;20358;-81
2021/06/20 00:18:57;;;;;;;;;;;;;;;24.63;59.83;100801.69;5015974;28;19918;-80
2021/06/20 00:21:22;;;;;;;;;;;;;;;24.80;58.51;100815.59;5016709;28;19921;-79
2021/06/20 00:23:48;;;;;;;;;;;;;;;24.52;59.20;100801.97;5015556;28;19924;-80
2021/06/20 00:26:14;;;;;;;;;;;;;;;24.81;58.69;100807.13;5016301;28;19918;-80
2021/06/20 00:28:39;;;;;;;;;;;;;;;24.71;59.02;100810.00;5015538;28;19913;-81
2021/06/20 00:31:05;;;;;;;;;;;;;;;24.58;59.44;100815.16;5033111;28;19925;-80
2021/06/20 00:33:30;;;;;;;;;;;;;;;23.73;62.01;100809.34;5017394;28;19924;-81
2021/06/20 00:35:57;;;;;;;;;;;;;;;24.11;60.55;100807.22;5017382;28;19921;-80
2021/06/20 00:38:22;;;;;;;;;;;;;;;24.62;58.41;100794.41;5017525;28;19928;-80
2021/06/20 00:40:47;;;;;;;;;;;;;;;23.95;60.13;100792.28;5018161;28;19914;-80
2021/06/20 00:43:13;;;;;;;;;;;;;;;23.78;61.14;100796.78;5016234;28;19921;-81
2021/06/20 00:45:39;;;;;;;;;;;;;;;24.14;60.18;100796.75;5017293;28;19921;-81
2021/06/20 00:48:05;;;;;;;;;;;;;;;24.17;59.51;100787.22;5019008;28;20000;-80
2021/06/20 00:50:30;;;;;;;;;;;;;;;24.11;60.34;100797.06;5018514;28;19953;-81
2021/06/20 00:52:56;;;;;;;;;;;;;;;23.08;62.92;100788.34;5033238;28;19913;-80
2021/06/20 00:55:22;;;;;;;;;;;;;;;23.15;62.99;100778.44;5017310;28;20497;-80
2021/06/20 00:57:47;;;;;;;;;;;;;;;22.97;63.80;100781.16;5016756;28;19918;-81
2021/06/20 01:00:13;;;;;;;;;;;;;;;22.82;64.08;100789.09;5017886;28;20382;-80
2021/06/20 01:02:38;;;;;;;;;;;;;;;23.17;63.54;100798.47;5032630;28;19921;-79
2021/06/20 01:05:04;;;;;;;;;;;;;;;23.43;62.04;100815.13;5017005;28;19929;-80
2021/06/20 01:07:30;;;;;;;;;;;;;;;22.34;65.37;100818.63;5014731;28;19921;-80
2021/06/20 01:09:55;;;;;;;;;;;;;;;23.40;61.31;100812.69;5015981;28;20088;-81
2021/06/20 01:12:21;;;;;;;;;;;;;;;23.13;62.54;100810.84;5032339;28;20323;-81
2021/06/20 01:14:47;;;;;;;;;;;;;;;22.92;63.17;100806.47;5017553;28;19964;-81
2021/06/20 01:17:13;;;;;;;;;;;;;;;22.21;65.73;100813.44;5016923;28;19929;-80
2021/06/20 01:19:40;;;;;;;;;;;;;;;21.78;67.60;100817.56;5019404;28;19940;-82
2021/06/20 01:22:19;;;;;;;;;;;;;;;21.66;68.30;100816.00;5017584;28;19918;-81
2021/06/20 01:24:48;;;;;;;;;;;;;;;21.86;67.14;100823.22;5018189;28;19979;-80
2021/06/20 01:27:13;;;;;;;;;;;;;;;22.07;66.91;100827.66;5018246;28;19918;-80
2021/06/20 01:29:46;;;;;;;;;;;;;;;20.92;70.61;100831.97;5018347;28;19917;-81
2021/06/20 01:32:11;;;;;;;;;;;;;;;21.78;68.07;100825.84;5019629;28;19924;-78
2021/06/20 01:34:37;;;;;;;;;;;;;;;22.36;65.48;100816.59;5019660;28;19922;-80
2021/06/20 01:37:02;;;;;;;;;;;;;;;22.67;64.25;100798.91;5018350;28;19917;-79
2021/06/20 01:39:27;;;;;;;;;;;;;;;22.52;64.14;100793.03;5019352;28;19918;-80
2021/06/20 01:41:53;;;;;;;;;;;;;;;22.53;64.71;100789.25;5019346;28;19917;-81
2021/06/20 01:44:18;;;;;;;;;;;;;;;23.26;61.92;100775.44;5017777;28;19918;-82
2021/06/20 01:46:49;;;;;;;;;;;;;;;23.05;62.20;100763.81;5017899;28;19918;-79
2021/06/20 01:49:15;;;;;;;;;;;;;;;22.63;63.32;100771.63;5017862;28;20004;-80
2021/06/20 01:51:43;;;;;;;;;;;;;;;23.24;61.56;100762.84;5017854;28;19976;-79
2021/06/20 01:54:08;;;;;;;;;;;;;;;22.69;63.07;100763.75;5017909;28;19917;-81
2021/06/20 01:56:34;;;;;;;;;;;;;;;23.15;61.25;100732.38;5018340;28;19924;-81
2021/06/20 01:58:59;;;;;;;;;;;;;;;22.97;62.10;100710.28;5018452;28;20302;-82
2021/06/20 02:01:24;;;;;;;;;;;;;;;22.70;62.65;100697.41;5018303;28;19975;-81
2021/06/20 02:03:49;;;;;;;;;;;;;;;22.57;63.29;100678.50;5017955;28;19933;-81
2021/06/20 02:06:15;;;;;;;;;;;;;;;22.63;62.82;100649.44;5018514;28;19925;-81
2021/06/20 02:08:40;;;;;;;;;;;;;;;22.56;62.37;100642.81;5019223;28;19964;-81
2021/06/20 02:11:05;;;;;;;;;;;;;;;22.47;63.29;100641.88;5035215;28;19921;-82
2021/06/20 02:13:30;;;;;;;;;;;;;;;22.76;61.86;100646.28;5019962;28;20337;-81
2021/06/20 02:15:56;;;;;;;;;;;;;;;22.81;61.67;100683.41;5035031;28;20442;-81
2021/06/20 02:18:22;;;;;;;;;;;;;;;23.27;60.18;100699.03;5018976;28;19921;-81
2021/06/20 02:20:47;;;;;;;;;;;;;;;23.06;60.32;100708.47;5020147;28;20330;-83
2021/06/20 02:23:13;;;;;;;;;;;;;;;23.75;58.66;100710.59;5019897;28;19940;-82
2021/06/20 02:25:38;;;;;;;;;;;;;;;24.26;56.60;100688.63;5018838;28;19969;-83
2021/06/20 02:28:04;;;;;;;;;;;;;;;24.05;57.36;100688.03;5018810;28;19917;-82
2021/06/20 02:30:29;;;;;;;;;;;;;;;23.97;57.81;100684.34;5018564;28;19967;-82
2021/06/20 02:32:55;;;;;;;;;;;;;;;24.05;56.44;100670.56;5035213;28;20028;-83
2021/06/20 02:35:21;;;;;;;;;;;;;;;23.19;60.48;100669.47;5019830;28;19921;-83
2021/06/20 02:37:47;;;;;;;;;;;;;;;22.75;61.46;100663.84;5020254;28;19972;-83
2021/06/20 02:40:13;;;;;;;;;;;;;;;23.05;60.45;100678.28;5019595;28;20338;-83
2021/06/20 02:42:39;;;;;;;;;;;;;;;23.68;58.34;100704.88;5034091;28;19968;-83
2021/06/20 02:45:05;;;;;;;;;;;;;;;23.95;57.12;100703.00;5017711;28;20036;-81
2021/06/20 02:47:30;;;;;;;;;;;;;;;23.89;57.73;100697.09;5018708;28;19917;-81
2021/06/20 02:49:56;;;;;;;;;;;;;;;24.15;56.12;100685.13;5017783;28;20386;-83
2021/06/20 02:52:22;;;;;;;;;;;;;;;24.27;55.50;100695.91;5017865;28;19918;-83
2021/06/20 02:54:50;;;;;;;;;;;;;;;23.98;56.05;100692.47;5017542;28;19917;-83
2021/06/20 02:57:16;;;;;;;;;;;;;;;23.97;56.36;100692.63;5018650;28;19991;-82
2021/06/20 02:59:41;;;;;;;;;;;;;;;24.04;55.52;100691.81;5019047;28;19917;-81
2021/06/20 03:02:07;;;;;;;;;;;;;;;23.87;55.97;100690.00;5018852;28;19964;-81
2021/06/20 03:04:32;;;;;;;;;;;;;;;23.13;58.26;100693.06;5017165;28;20002;-83
2021/06/20 03:06:57;;;;;;;;;;;;;;;23.65;56.76;100689.47;5017136;28;19940;-81
2021/06/20 03:09:22;;;;;;;;;;;;;;;23.75;56.79;100691.25;5018703;28;19971;-81
2021/06/20 03:11:47;;;;;;;;;;;;;;;23.99;55.46;100683.16;5017043;28;20475;-83
2021/06/20 03:14:13;;;;;;;;;;;;;;;23.40;58.23;100679.28;5016452;28;20001;-81
2021/06/20 03:16:39;;;;;;;;;;;;;;;23.98;55.56;100681.41;5016779;28;19996;-81
2021/06/20 03:19:05;;;;;;;;;;;;;;;23.92;55.54;100684.00;5019418;28;20371;-82
2021/06/20 03:21:30;;;;;;;;;;;;;;;23.77;56.37;100703.03;5020700;28;20286;-80
2021/06/20 03:23:55;;;;;;;;;;;;;;;23.86;55.50;100702.09;5021739;28;19925;-81
2021/06/20 03:26:21;;;;;;;;;;;;;;;24.29;54.41;100700.25;5020234;28;19960;-81
2021/06/20 03:28:46;;;;;;;;;;;;;;;24.35;53.32;100695.91;5021292;28;19921;-81
2021/06/20 03:31:12;;;;;;;;;;;;;;;24.40;53.48;100708.22;5021945;28;19921;-82
2021/06/20 03:33:37;;;;;;;;;;;;;;;23.87;55.25;100723.16;5021637;28;19917;-84
2021/06/20 03:36:03;;;;;;;;;;;;;;;24.40;53.90;100719.28;5020395;28;20287;-84
2021/06/20 03:38:29;;;;;;;;;;;;;;;24.84;52.21;100731.22;5020468;28;19923;-82
2021/06/20 03:40:55;;;;;;;;;;;;;;;24.81;52.16;100734.31;5020481;28;20283;-82
2021/06/20 03:43:20;;;;;;;;;;;;;;;24.72;52.22;100745.34;5022712;28;19917;-82
2021/06/20 03:45:45;;;;;;;;;;;;;;;24.44;54.09;100765.94;5021216;28;19917;-80
2021/06/20 03:48:10;;;;;;;;;;;;;;;24.39;53.64;100783.91;5021966;28;19941;-81
2021/06/20 03:50:36;;;;;;;;;;;;;;;24.05;55.18;100809.63;5020976;28;21377;-81
2021/06/20 03:53:02;;;;;;;;;;;;;;;24.13;55.44;100802.44;5020197;28;20012;-81
2021/06/20 03:55:27;;;;;;;;;;;;;;;24.37;54.69;100788.75;5019283;28;19925;-81
2021/06/20 03:57:52;;;;;;;;;;;;;;;24.51;53.57;100780.84;5019211;28;19918;-83
2021/06/20 04:00:18;;;;;;;;;;;;;;;24.91;52.15;100759.91;5019195;28;20367;-80
2021/06/20 04:02:43;;;;;;;;;;;;;;;25.18;51.94;100750.44;5020808;28;19921;-82
2021/06/20 04:05:09;;;;;;;;;;;;;;;24.73;52.37;100754.50;5017992;28;19933;-81
2021/06/20 04:07:35;;;;;;;;;;;;;;;25.32;51.57;100751.72;5019393;28;20294;-82
2021/06/20 04:10:00;;;;;;;;;;;;;;;25.21;51.03;100760.31;5019983;28;19985;-82
2021/06/20 04:12:25;;;;;;;;;;;;;;;25.32;51.14;100773.00;5019300;28;20319;-83
2021/06/20 04:14:50;;;;;;;;;;;;;;;24.90;53.43;100769.28;5019025;28;20386;-81
2021/06/20 04:17:16;;;;;;;;;;;;;;;24.57;53.77;100781.03;5019325;28;19917;-80
2021/06/20 04:19:41;;;;;;;;;;;;;;;24.64;54.10;100788.72;5020266;28;19928;-82
2021/06/20 04:22:06;;;;;;;;;;;;;;;24.84;53.91;100792.94;5019018;28;19917;-82
2021/06/20 04:24:31;;;;;;;;;;;;;;;24.40;55.46;100763.50;5019401;28;19921;-82
2021/06/20 04:26:57;;;;;;;;;;;;;;;24.58;54.84;100759.84;5020087;28;19921;-84
2021/06/20 04:29:22;;;;;;;;;;;;;;;25.07;53.01;100748.88;5018304;28;19929;-82
2021/06/20 04:31:47;;;;;;;;;;;;;;;24.72;54.51;100747.25;5017117;28;20287;-83
2021/06/20 04:34:13;;;;;;;;;;;;;;;25.10;52.33;100748.53;5018851;28;19917;-83
2021/06/20 04:36:38;;;;;;;;;;;;;;;24.95;53.02;100751.09;5018535;28;20283;-82
2021/06/20 04:39:07;;;;;;;;;;;;;;;24.79;53.93;100741.91;5019197;28;20003;-82
2021/06/20 04:41:32;;;;;;;;;;;;;;;25.02;52.64;100745.78;5018782;28;20000;-84
2021/06/20 04:44:00;;;;;;;;;;;;;;;25.88;50.82;100754.66;5017378;28;20335;-82
2021/06/20 04:46:28;;;;;;;;;;;;;;;25.37;52.19;100765.06;5018175;28;19956;-84
2021/06/20 04:48:54;;;;;;;;;;;;;;;26.05;50.85;100761.03;5018805;28;19914;-82
2021/06/20 04:51:20;;;;;;;;;;;;;;;26.84;49.67;100763.91;5017792;28;19924;-83
2021/06/20 04:53:45;;;;;;;;;;;;;;;26.65;50.12;100767.94;5018234;28;19968;-82
2021/06/20 04:56:11;;;;;;;;;;;;;;;26.73;49.45;100767.06;5019646;28;19913;-83
2021/06/20 04:58:36;;;;;;;;;;;;;;;26.07;49.31;100775.59;5020311;28;19997;-83
2021/06/20 05:01:02;;;;;;;;;;;;;;;25.52;50.86;100787.41;5021567;28;20319;-84
2021/06/20 05:03:27;;;;;;;;;;;;;;;24.51;53.92;100792.78;5019612;28;20068;-83
2021/06/20 05:05:52;;;;;;;;;;;;;;;25.84;50.49;100783.75;5018300;28;20349;-83
2021/06/20 05:08:18;;;;;;;;;;;;;;;26.05;49.88;100791.53;5018181;28;20517;-84
2021/06/20 05:10:43;;;;;;;;;;;;;;;26.08;49.26;100782.88;5018385;28;19993;-83
2021/06/20 05:13:08;;;;;;;;;;;;;;;25.95;49.35;100771.41;5017698;28;19926;-84
2021/06/20 05:15:33;;;;;;;;;;;;;;;25.90;48.43;100755.31;5017065;28;19919;-84
2021/06/20 05:17:59;;;;;;;;;;;;;;;25.98;49.55;100752.59;5017189;28;19918;-83
2021/06/20 05:20:24;;;;;;;;;;;;;;;25.96;50.73;100765.69;5017594;28;20000;-82
2021/06/20 05:22:49;;;;;;;;;;;;;;;25.67;51.56;100765.41;5016218;28;19969;-81
2021/06/20 05:25:15;;;;;;;;;;;;;;;25.54;52.01;100760.38;5016597;28;19924;-82
2021/06/20 05:27:40;;;;;;;;;;;;;;;25.18;53.90;100761.53;5015948;28;19921;-83
2021/06/20 05:30:06;;;;;;;;;;;;;;;25.53;52.48;100770.59;5016490;28;19929;-82
2021/06/20 05:32:31;;;;;;;;;;;;;;;24.85;54.73;100775.31;5016451;28;19921;-81
2021/06/20 05:34:56;;;;;;;;;;;;;;;25.31;53.82;100779.59;5015561;28;20298;-81
2021/06/20 05:37:21;;;;;;;;;;;;;;;26.06;50.91;100784.97;5015982;28;19943;-81
2021/06/20 05:39:47;;;;;;;;;;;;;;;25.89;51.07;100797.06;5016109;28;20005;-80
2021/06/20 05:42:12;;;;;;;;;;;;;;;25.50;52.40;100795.88;5015116;28;20294;-82
2021/06/20 05:44:37;;;;;;;;;;;;;;;25.77;51.95;100791.91;5016087;28;20531;-82
2021/06/20 05:47:02;;;;;;;;;;;;;;;25.55;52.60;100789.81;5016249;28;19918;-83
2021/06/20 05:49:28;;;;;;;;;;;;;;;25.36;53.62;100793.78;5017729;28;19940;-82
2021/06/20 05:51:53;;;;;;;;;;;;;;;24.94;54.39;100795.56;5016158;28;19917;-82
2021/06/20 05:54:18;;;;;;;;;;;;;;;25.05;54.14;100800.78;5015867;28;19917;-82
2021/06/20 05:56:44;;;;;;;;;;;;;;;25.78;53.00;100795.53;5015606;28;19995;-83
2021/06/20 05:59:09;;;;;;;;;;;;;;;25.13;52.67;100792.50;5016501;28;20379;-83
2021/06/20 06:01:35;;;;;;;;;;;;;;;25.57;53.44;100790.50;5017004;28;19918;-82
2021/06/20 06:04:00;;;;;;;;;;;;;;;24.58;55.39;100795.78;5017175;28;20414;-82
2021/06/20 06:06:27;;;;;;;;;;;;;;;25.10;53.04;100797.50;5015468;28;19928;-82
2021/06/20 06:08:52;;;;;;;;;;;;;;;25.89;51.22;100792.41;5015215;28;20012;-83
2021/06/20 06:11:17;;;;;;;;;;;;;;;24.87;53.44;100794.53;5015593;28;19960;-82
2021/06/20 06:13:43;;;;;;;;;;;;;;;26.37;50.81;100799.97;5017937;28;19918;-82
2021/06/20 06:16:08;;;;;;;;;;;;;;;26.24;50.57;100803.28;5017084;28;20434;-84
2021/06/20 06:18:34;;;;;;;;;;;;;;;25.29;51.87;100804.66;5015571;28;19918;-83
2021/06/20 06:20:59;;;;;;;;;;;;;;;25.32;53.27;100812.66;5012166;28;19980;-83
2021/06/20 06:23:24;;;;;;;;;;;;;;;25.15;53.25;100813.59;5013611;28;20020;-83
2021/06/20 06:25:50;;;;;;;;;;;;;;;25.76;51.00;100812.31;5011762;28;19959;-81
2021/06/20 06:28:15;;;;;;;;;;;;;;;26.08;51.14;100806.97;5012223;28;20055;-83
2021/06/20 06:30:40;;;;;;;;;;;;;;;25.37;52.48;100815.75;5019815;28;20405;-83
2021/06/20 06:33:06;;;;;;;;;;;;;;;25.40;52.93;100817.34;5013953;28;19922;-82
2021/06/20 06:35:31;;;;;;;;;;;;;;;25.92;51.85;100813.34;5012712;28;19927;-82
2021/06/20 06:37:57;;;;;;;;;;;;;;;27.10;48.27;100821.03;5022073;28;19944;-82
2021/06/20 06:40:22;;;;;;;;;;;;;;;27.83;46.54;100823.47;5017588;28;19922;-85
2021/06/20 06:42:48;;;;;;;;;;;;;;;28.09;44.98;100828.66;5013977;28;19917;-84
2021/06/20 06:45:16;;;;;;;;;;;;;;;28.26;44.79;100830.22;5014837;28;19972;-83
2021/06/20 06:47:41;;;;;;;;;;;;;;;27.06;46.80;100839.09;5013792;28;19918;-85
2021/06/20 06:50:07;;;;;;;;;;;;;;;27.20;46.35;100835.50;5013359;28;20330;-84
2021/06/20 06:52:32;;;;;;;;;;;;;;;27.26;47.27;100844.19;5029383;28;20287;-83
2021/06/20 06:54:57;;;;;;;;;;;;;;;27.63;46.77;100857.34;5012840;28;19924;-81
2021/06/20 06:57:23;;;;;;;;;;;;;;;26.69;48.59;100854.50;5028936;28;19918;-80
2021/06/20 06:59:49;;;;;;;;;;;;;;;26.05;50.34;100863.63;5013079;28;19918;-82
2021/06/20 07:02:16;;;;;;;;;;;;;;;27.04;49.30;100846.75;5013485;28;19918;-84
2021/06/20 07:04:41;;;;;;;;;;;;;;;26.01;51.71;100865.00;5011567;28;19929;-83
2021/06/20 07:07:06;;;;;;;;;;;;;;;26.65;51.13;100869.78;5029038;28;20023;-82
2021/06/20 07:09:31;;;;;;;;;;;;;;;26.84;49.63;100860.16;5012308;28;20501;-84
2021/06/20 07:11:58;;;;;;;;;;;;;;;26.59;50.42;100870.47;5012114;28;19917;-82
2021/06/20 07:14:23;;;;;;;;;;;;;;;26.45;50.05;100864.63;5028148;28;19940;-86
2021/06/20 07:16:48;;;;;;;;;;;;;;;26.27;51.58;100864.81;5029017;28;20291;-84
2021/06/20 07:19:13;;;;;;;;;;;;;;;26.79;49.75;100870.97;5028628;28;20363;-83
2021/06/20 07:21:39;;;;;;;;;;;;;;;26.51;48.99;100883.31;5013664;28;19917;-84
2021/06/20 07:24:05;;;;;;;;;;;;;;;26.50;50.39;100870.47;5012154;28;20282;-84
2021/06/20 07:26:30;;;;;;;;;;;;;;;26.30;50.20;100867.25;5013591;28;19921;-82
2021/06/20 07:28:56;;;;;;;;;;;;;;;25.77;52.97;100858.41;5011587;28;19921;-84
2021/06/20 07:31:22;;;;;;;;;;;;;;;27.02;49.27;100859.91;5011607;28;19925;-83
2021/06/20 07:33:48;;;;;;;;;;;;;;;26.81;50.20;100855.88;5011647;28;19922;-84
2021/06/20 07:36:15;;;;;;;;;;;;;;;26.82;50.95;100849.25;5011622;28;19923;-85
2021/06/20 07:38:40;;;;;;;;;;;;;;;27.71;46.62;100848.94;5011832;28;19917;-84
2021/06/20 07:41:06;;;;;;;;;;;;;;;27.54;47.39;100836.22;5012729;28;20363;-84
2021/06/20 07:43:31;;;;;;;;;;;;;;;27.36;48.71;100844.84;5011290;28;19983;-84
2021/06/20 07:45:56;;;;;;;;;;;;;;;27.91;45.76;100843.72;5012954;28;20363;-84
2021/06/20 07:48:22;;;;;;;;;;;;;;;27.12;46.77;100856.94;5011907;28;19968;-84
2021/06/20 07:50:47;;;;;;;;;;;;;;;25.38;53.90;100863.69;5032214;28;19928;-86
2021/06/20 07:53:12;;;;;;;;;;;;;;;26.32;51.05;100867.91;5036166;28;19924;-88
2021/06/20 07:55:38;;;;;;;;;;;;;;;27.79;47.46;100867.44;5041792;28;20020;-84
2021/06/20 07:58:03;;;;;;;;;;;;;;;28.26;46.12;100860.81;5028922;28;19940;-84
2021/06/20 08:00:28;;;;;;;;;;;;;;;28.79;44.80;100863.56;5027814;28;19925;-85
2021/06/20 08:02:53;;;;;;;;;;;;;;;28.77;43.79;100864.81;5037412;28;20008;-84
2021/06/20 08:05:19;;;;;;;;;;;;;;;26.99;49.23;100876.94;5023908;28;19932;-85
2021/06/20 08:07:44;;;;;;;;;;;;;;;27.57;47.34;100866.41;5036689;28;19924;-84
2021/06/20 08:10:09;;;;;;;;;;;;;;;28.41;44.43;100871.09;5034906;28;19917;-84
2021/06/20 08:12:35;;;;;;;;;;;;;;;28.03;46.43;100869.19;5036076;28;19971;-85
2021/06/20 08:15:00;;;;;;;;;;;;;;;28.08;45.42;100872.28;5034705;28;20376;-85
2021/06/20 08:17:25;;;;;;;;;;;;;;;28.23;45.15;100882.56;5039680;28;20393;-86
2021/06/20 08:19:51;;;;;;;;;;;;;;;28.41;44.47;100873.88;5036426;28;20268;-85
2021/06/20 08:22:17;;;;;;;;;;;;;;;28.13;44.57;100873.63;5036616;28;19917;-90
2021/06/20 08:24:43;;;;;;;;;;;;;;;27.47;46.77;100891.66;5037700;28;19927;-89
2021/06/20 08:27:08;;;;;;;;;;;;;;;26.77;49.96;100889.69;5038672;28;19917;-88
2021/06/20 08:29:34;;;;;;;;;;;;;;;27.15;47.61;100896.31;5035565;28;20488;-85
2021/06/20 08:32:02;;;;;;;;;;;;;;;27.46;47.01;100894.63;5035389;28;19917;-90
2021/06/20 08:34:29;;;;;;;;;;;;;;;27.25;48.73;100893.28;5035632;28;19958;-90
2021/06/20 08:36:55;;;;;;;;;;;;;;;26.94;49.84;100887.75;5037679;28;19917;-88
2021/06/20 08:39:23;;;;;;;;;;;;;;;27.07;49.67;100890.81;5036762;28;20287;-90
2021/06/20 08:41:48;;;;;;;;;;;;;;;26.49;49.57;100892.84;5036921;28;19952;-90
2021/06/20 08:44:18;;;;;;;;;;;;;;;27.18;48.35;100893.16;5036575;28;20286;-89
2021/06/20 08:46:47;;;;;;;;;;;;;;;26.95;47.93;100897.78;5036881;28;19917;-85
2021/06/20 08:49:12;;;;;;;;;;;;;;;26.57;47.58;100897.53;5036116;28;19932;-88
2021/06/20 08:51:44;;;;;;;;;;;;;;;26.80;49.46;100890.22;5035937;28;19916;-82
2021/06/20 08:54:09;;;;;;;;;;;;;;;26.56;49.26;100880.03;5036319;28;19917;-84
2021/06/20 08:56:35;;;;;;;;;;;;;;;28.56;45.10;100883.09;5020578;28;19921;-83
2021/06/20 08:59:04;;;;;;;;;;;;;;;27.32;45.56;100890.69;5026656;28;20000;-84
2021/06/20 09:01:29;;;;;;;;;;;;;;;27.38;46.76;100903.88;5022487;28;19917;-84
2021/06/20 09:03:54;;;;;;;;;;;;;;;27.24;46.35;100905.47;5020688;28;19968;-82
2021/06/20 09:06:20;;;;;;;;;;;;;;;26.59;48.84;100904.63;5022701;28;19921;-82
2021/06/20 09:08:49;;;;;;;;;;;;;;;26.37;47.81;100922.88;5014872;28;19917;-83
2021/06/20 09:11:22;;;;;;;;;;;;;;;27.27;46.87;100915.38;5015202;28;19918;-83
2021/06/20 09:13:48;;;;;;;;;;;;;;;27.38;47.31;100921.38;5015066;28;19917;-80
2021/06/20 09:16:13;;;;;;;;;;;;;;;27.62;46.23;100927.00;5013519;28;20434;-81
2021/06/20 09:18:48;;;;;;;;;;;;;;;27.43;46.25;100920.84;5015079;28;20360;-81
2021/06/20 09:21:13;;;;;;;;;;;;;;;28.22;42.76;100912.31;5013760;28;19921;-83
2021/06/20 09:23:39;;;;;;;;;;;;;;;28.79;43.02;100921.16;5014096;28;19917;-82
2021/06/20 09:26:05;;;;;;;;;;;;;;;27.18;46.11;100929.28;5015606;28;20055;-81
2021/06/20 09:28:35;;;;;;;;;;;;;;;28.04;45.94;100929.34;5015260;28;19964;-82
2021/06/20 09:31:06;;;;;;;;;;;;;;;28.78;42.30;100933.38;5016102;28;19917;-83
2021/06/20 09:33:32;;;;;;;;;;;;;;;27.66;44.18;100929.25;5031667;28;20020;-84
2021/06/20 09:35:58;;;;;;;;;;;;;;;28.87;40.91;100937.78;5014461;28;19922;-85
2021/06/20 09:38:25;;;;;;;;;;;;;;;28.44;41.76;100927.25;5015192;28;20375;-84
2021/06/20 09:40:51;;;;;;;;;;;;;;;29.08;40.86;100939.81;5014322;28;19920;-85
2021/06/20 09:43:17;;;;;;;;;;;;;;;28.32;42.61;100930.66;5014943;28;20330;-82
2021/06/20 09:45:44;;;;;;;;;;;;;;;29.76;39.97;100934.03;5014407;28;19922;-84
2021/06/20 09:48:20;;;;;;;;;;;;;;;28.46;43.31;100935.41;5014537;28;20397;-83
2021/06/20 09:50:45;;;;;;;;;;;;;;;28.91;41.84;100944.72;5031023;28;19921;-84
2021/06/20 09:53:10;;;;;;;;;;;;;;;28.47;41.51;100948.25;5016817;28;19964;-85
2021/06/20 09:55:36;;;;;;;;;;;;;;;28.26;41.67;100946.19;5014726;28;19984;-85
2021/06/20 09:58:02;;;;;;;;;;;;;;;27.50;49.10;100948.78;5029681;28;20050;-81
2021/06/20 10:00:38;;;;;;;;;;;;;;;27.24;50.38;100955.47;5014261;28;19921;-81
2021/06/20 10:03:04;;;;;;;;;;;;;;;27.34;49.37;100958.94;5014309;28;19928;-80
2021/06/20 10:05:29;;;;;;;;;;;;;;;27.98;48.66;100966.22;5022309;28;19929;-82
2021/06/20 10:07:54;;;;;;;;;;;;;;;27.62;48.42;100971.47;5030513;28;19966;-82
2021/06/20 10:10:19;;;;;;;;;;;;;;;28.92;45.65;100952.00;5033638;28;19921;-82
2021/06/20 10:12:44;;;;;;;;;;;;;;;28.61;44.58;100954.94;5048809;28;20011;-80
2021/06/20 10:15:11;;;;;;;;;;;;;;;28.86;43.22;100961.13;5033224;28;19956;-84
2021/06/20 10:17:39;;;;;;;;;;;;;;;29.08;43.13;100961.22;5033841;28;19917;-84
2021/06/20 10:20:09;;;;;;;;;;;;;;;28.99;43.56;100968.81;5033766;28;19918;-82
2021/06/20 10:22:38;;;;;;;;;;;;;;;29.15;42.83;100968.63;5032565;28;19925;-83
2021/06/20 10:25:06;;;;;;;;;;;;;;;29.59;41.36;100958.53;5032511;28;19971;-85
2021/06/20 10:27:39;;;;;;;;;;;;;;;30.14;41.04;100955.28;5031776;28;19924;-83
2021/06/20 10:30:08;;;;;;;;;;;;;;;29.73;41.31;100956.75;5010463;28;19944;-81
2021/06/20 10:32:40;;;;;;;;;;;;;;;29.56;41.16;100953.34;5011429;28;19925;-79
2021/06/20 10:35:08;;;;;;;;;;;;;;;29.19;41.45;100955.16;5012325;28;19922;-81
2021/06/20 10:37:37;;;;;;;;;;;;;;;30.11;40.07;100950.09;5011518;28;19975;-84
2021/06/20 10:40:04;;;;;;;;;;;;;;;30.15;39.82;100949.50;5011963;28;19921;-85
2021/06/20 10:42:36;;;;;;;;;;;;;;;29.95;40.25;100951.22;5014335;28;20403;-84
2021/06/20 10:45:02;;;;;;;;;;;;;;;29.60;40.86;100960.22;5013564;28;19992;-83
2021/06/20 10:47:38;;;;;;;;;;;;;;;29.50;40.95;100966.13;5011520;28;20367;-85
2021/06/20 10:50:15;;;;;;;;;;;;;;;30.80;38.94;100955.00;5012089;28;19987;-81
2021/06/20 10:52:43;;;;;;;;;;;;;;;29.99;38.50;100956.19;5011391;28;19924;-83
2021/06/20 10:55:09;;;;;;;;;;;;;;;29.65;38.48;100956.84;5013090;28;20371;-85
2021/06/20 10:57:41;;;;;;;;;;;;;;;30.63;37.54;100960.00;5012965;28;19921;-84
2021/06/20 11:00:06;;;;;;;;;;;;;;;29.91;36.74;100956.34;4993374;28;19917;-85
2021/06/20 11:02:33;;;;;;;;;;;;;;;29.79;39.40;100952.31;4993436;28;20295;-84
2021/06/20 11:04:59;;;;;;;;;;;;;;;29.74;38.21;100954.81;4991685;28;20016;-83
2021/06/20 11:07:27;;;;;;;;;;;;;;;29.68;38.29;100943.41;4991200;28;20024;-86
2021/06/20 11:09:52;;;;;;;;;;;;;;;29.72;38.26;100946.63;4991348;28;20457;-83
2021/06/20 11:12:18;;;;;;;;;;;;;;;31.33;35.48;100942.41;4990996;28;19922;-82
2021/06/20 11:14:44;;;;;;;;;;;;;;;30.72;37.21;100946.75;4992566;28;20371;-79
2021/06/20 11:17:11;;;;;;;;;;;;;;;30.27;37.54;100954.53;4991809;28;19918;-83
2021/06/20 11:19:36;;;;;;;;;;;;;;;30.12;38.22;100943.44;4994409;28;19925;-84
2021/06/20 11:22:07;;;;;;;;;;;;;;;29.39;38.82;100947.09;4995610;28;19917;-80
2021/06/20 11:24:32;;;;;;;;;;;;;;;30.14;38.29;100944.13;4993137;28;19957;-81
2021/06/20 11:27:08;;;;;;;;;;;;;;;29.97;38.08;100947.16;4992575;28;20398;-82
2021/06/20 11:29:39;;;;;;;;;;;;;;;29.77;39.07;100934.91;4993986;28;20331;-85
2021/06/20 11:32:06;;;;;;;;;;;;;;;29.69;39.02;100942.31;4993212;28;19980;-82
2021/06/20 11:34:31;;;;;;;;;;;;;;;30.00;37.35;100927.25;4993530;28;19981;-84
2021/06/20 11:36:57;;;;;;;;;;;;;;;29.58;39.13;100937.25;4993826;28;19918;-82
2021/06/20 11:39:22;;;;;;;;;;;;;;;29.49;38.37;100935.66;4994321;28;19980;-82
2021/06/20 11:41:49;;;;;;;;;;;;;;;30.51;36.61;100937.38;4996906;28;19914;-82
2021/06/20 11:44:15;;;;;;;;;;;;;;;30.05;37.69;100930.28;4998721;28;19972;-82
2021/06/20 11:46:42;;;;;;;;;;;;;;;30.73;35.36;100932.59;4996296;28;19925;-82
2021/06/20 11:49:12;;;;;;;;;;;;;;;31.43;33.49;100926.13;4994192;28;20011;-80
2021/06/20 11:51:39;;;;;;;;;;;;;;;31.81;35.08;100928.41;4995558;28;19922;-80
2021/06/20 11:54:27;;;;;;;;;;;;;;;31.44;34.42;100917.50;4996305;28;20386;-78
2021/06/20 11:56:54;;;;;;;;;;;;;;;32.84;33.16;100918.81;4993521;28;19940;-79
2021/06/20 11:59:26;;;;;;;;;;;;;;;31.88;33.77;100914.44;5008400;28;19921;-81
2021/06/20 12:01:52;;;;;;;;;;;;;;;32.26;33.96;100908.25;5014921;28;20294;-80
2021/06/20 12:04:21;;;;;;;;;;;;;;;31.07;35.81;100902.09;5030331;28;19921;-80
2021/06/20 12:06:47;;;;;;;;;;;;;;;30.96;35.78;100908.25;5015840;28;19949;-83
2021/06/20 12:09:12;;;;;;;;;;;;;;;31.80;35.12;100904.31;5014892;28;19914;-82
2021/06/20 12:11:38;;;;;;;;;;;;;;;31.16;35.72;100903.66;5014463;28;19918;-80
2021/06/20 12:14:04;;;;;;;;;;;;;;;31.44;34.80;100903.53;5014601;28;19913;-83
2021/06/20 12:16:29;;;;;;;;;;;;;;;31.64;34.29;100905.56;5014164;28;19922;-81
2021/06/20 12:18:56;;;;;;;;;;;;;;;32.30;32.62;100904.81;5014647;28;19961;-80
2021/06/20 12:21:27;;;;;;;;;;;;;;;32.58;32.93;100905.66;5013561;28;19968;-79
2021/06/20 12:23:53;;;;;;;;;;;;;;;31.93;32.85;100901.56;5013753;28;20345;-81
2021/06/20 12:26:26;;;;;;;;;;;;;;;32.51;33.45;100909.31;5030719;28;19924;-81
2021/06/20 12:28:52;;;;;;;;;;;;;;;32.44;33.10;100914.06;5015401;28;19917;-80
2021/06/20 12:31:17;;;;;;;;;;;;;;;31.61;34.07;100908.78;5015351;28;19924;-79